createdAt,value
2018-10-19T00:00:46.833Z,2.60
2018-10-19T00:01:46.828Z,2.50
2018-10-19T00:02:46.824Z,2.60
2018-10-19T00:03:46.819Z,2.60
2018-10-19T00:04:46.813Z,2.70
2018-10-19T00:05:46.807Z,2.70
2018-10-19T00:06:46.804Z,2.70
2018-10-19T00:07:46.806Z,3.00
2018-10-19T00:08:46.800Z,2.60
2018-10-19T00:09:46.791Z,2.60
2018-10-19T00:10:46.785Z,2.60
2018-10-19T00:11:46.780Z,2.60
2018-10-19T00:12:46.812Z,2.80
2018-10-19T00:13:46.770Z,2.70
2018-10-19T00:14:46.764Z,2.50
2018-10-19T00:15:47.540Z,2.50
2018-10-19T00:16:46.757Z,2.90
2018-10-19T00:17:46.756Z,2.60
2018-10-19T00:18:46.744Z,2.90
2018-10-19T00:19:46.746Z,3.00
2018-10-19T00:20:46.741Z,2.70
2018-10-19T00:21:46.727Z,2.70
2018-10-19T00:22:46.726Z,2.90
2018-10-19T00:23:46.720Z,2.80
2018-10-19T00:24:46.716Z,2.50
2018-10-19T00:25:46.711Z,2.70
2018-10-19T00:26:46.707Z,2.20
2018-10-19T00:27:46.702Z,2.70
2018-10-19T00:28:46.697Z,3.00
2018-10-19T00:29:46.691Z,2.70
2018-10-19T00:30:46.687Z,2.30
2018-10-19T00:31:46.682Z,2.30
2018-10-19T00:32:46.674Z,2.50
2018-10-19T00:33:46.669Z,2.40
2018-10-19T00:34:46.666Z,2.60
2018-10-19T00:35:46.661Z,2.80
2018-10-19T00:36:46.742Z,2.30
2018-10-19T00:37:46.650Z,2.60
2018-10-19T00:38:46.647Z,2.70
2018-10-19T00:39:46.640Z,2.70
2018-10-19T00:40:46.641Z,2.60
2018-10-19T00:41:46.630Z,2.60
2018-10-19T00:42:46.628Z,2.70
2018-10-19T00:43:46.622Z,2.30
2018-10-19T00:44:46.615Z,2.60
2018-10-19T00:45:46.610Z,2.80
2018-10-19T00:46:46.605Z,2.40
2018-10-19T00:47:46.600Z,2.60
2018-10-19T00:48:46.595Z,2.70
2018-10-19T00:49:46.594Z,2.60
2018-10-19T00:50:46.585Z,2.60
2018-10-19T00:51:46.579Z,2.50
2018-10-19T00:52:46.580Z,2.90
2018-10-19T00:53:46.568Z,2.90
2018-10-19T00:54:46.563Z,2.80
2018-10-19T00:55:46.561Z,2.70
2018-10-19T00:56:46.554Z,2.50
2018-10-19T00:57:46.549Z,2.80
2018-10-19T00:58:46.550Z,2.70
2018-10-19T00:59:46.541Z,2.10
2018-10-19T01:00:46.533Z,2.40
2018-10-19T01:01:46.531Z,2.60
2018-10-19T01:02:46.521Z,2.70
2018-10-19T01:03:46.518Z,2.50
2018-10-19T01:04:46.515Z,2.60
2018-10-19T01:05:46.521Z,2.40
2018-10-19T01:06:46.503Z,2.80
2018-10-19T01:07:46.500Z,2.70
2018-10-19T01:08:46.493Z,2.70
2018-10-19T01:09:46.491Z,2.40
2018-10-19T01:10:46.481Z,2.60
2018-10-19T01:11:46.479Z,2.30
2018-10-19T01:12:46.471Z,2.40
2018-10-19T01:13:46.465Z,2.70
2018-10-19T01:14:46.460Z,2.50
2018-10-19T01:15:46.451Z,2.50
2018-10-19T01:16:46.453Z,2.70
2018-10-19T01:17:46.446Z,2.60
2018-10-19T01:18:46.441Z,2.60
2018-10-19T01:19:47.128Z,2.40
2018-10-19T01:20:46.428Z,2.50
2018-10-19T01:21:46.424Z,2.60
2018-10-19T01:22:46.418Z,2.60
2018-10-19T01:23:46.414Z,2.50
2018-10-19T01:24:46.412Z,2.20
2018-10-19T01:25:46.401Z,2.50
2018-10-19T01:26:46.391Z,2.50
2018-10-19T01:27:46.395Z,2.50
2018-10-19T01:28:46.390Z,2.70
2018-10-19T01:29:46.395Z,2.30
2018-10-19T01:30:46.371Z,2.40
2018-10-19T01:31:46.370Z,2.60
2018-10-19T01:32:46.370Z,2.50
2018-10-19T01:33:46.360Z,2.60
2018-10-19T01:34:46.358Z,2.40
2018-10-19T01:35:46.352Z,2.60
2018-10-19T01:36:46.346Z,2.70
2018-10-19T01:37:46.339Z,2.30
2018-10-19T01:38:46.334Z,2.20
2018-10-19T01:39:46.329Z,2.40
2018-10-19T01:40:46.324Z,2.40
2018-10-19T01:41:46.317Z,2.70
2018-10-19T01:42:46.311Z,2.30
2018-10-19T01:43:46.308Z,2.80
2018-10-19T01:44:46.304Z,2.50
2018-10-19T01:45:46.296Z,2.50
2018-10-19T01:46:46.291Z,2.80
2018-10-19T01:47:46.284Z,2.40
2018-10-19T01:48:46.282Z,2.30
2018-10-19T01:49:46.276Z,2.50
2018-10-19T01:50:46.267Z,2.60
2018-10-19T01:51:46.263Z,2.70
2018-10-19T01:52:46.263Z,2.50
2018-10-19T01:53:46.258Z,2.30
2018-10-19T01:54:46.250Z,2.50
2018-10-19T01:55:46.242Z,2.10
2018-10-19T01:56:46.241Z,2.50
2018-10-19T01:57:46.229Z,2.40
2018-10-19T01:58:46.230Z,2.40
2018-10-19T01:59:46.221Z,2.30
2018-10-19T02:00:46.214Z,2.70
2018-10-19T02:01:46.207Z,2.60
2018-10-19T02:02:46.204Z,2.30
2018-10-19T02:03:46.197Z,2.70
2018-10-19T02:04:46.191Z,2.70
2018-10-19T02:05:46.186Z,2.50
2018-10-19T02:06:46.181Z,2.60
2018-10-19T02:07:46.176Z,2.50
2018-10-19T02:08:46.170Z,2.50
2018-10-19T02:09:46.168Z,2.40
2018-10-19T02:10:46.155Z,2.60
2018-10-19T02:11:46.156Z,2.80
2018-10-19T02:12:46.149Z,2.60
2018-10-19T02:13:46.142Z,2.60
2018-10-19T02:14:46.140Z,2.80
2018-10-19T02:15:46.131Z,2.60
2018-10-19T02:16:46.129Z,2.80
2018-10-19T02:17:46.121Z,2.70
2018-10-19T02:18:46.115Z,2.80
2018-10-19T02:19:47.066Z,2.60
2018-10-19T02:20:46.105Z,2.50
2018-10-19T02:21:46.098Z,2.40
2018-10-19T02:22:46.093Z,2.60
2018-10-19T02:23:46.089Z,2.50
2018-10-19T02:24:46.081Z,3.00
2018-10-19T02:25:46.076Z,2.60
2018-10-19T02:26:46.071Z,2.60
2018-10-19T02:27:46.067Z,2.60
2018-10-19T02:28:46.058Z,2.50
2018-10-19T02:29:46.055Z,2.90
2018-10-19T02:30:46.051Z,2.80
2018-10-19T02:31:46.042Z,2.80
2018-10-19T02:32:46.037Z,2.70
2018-10-19T02:33:46.030Z,3.00
2018-10-19T02:34:46.028Z,2.30
2018-10-19T02:35:46.022Z,3.10
2018-10-19T02:36:46.016Z,2.80
2018-10-19T02:37:46.574Z,2.80
2018-10-19T02:38:46.002Z,3.10
2018-10-19T02:39:45.996Z,3.00
2018-10-19T02:40:45.990Z,2.80
2018-10-19T02:41:45.987Z,2.70
2018-10-19T02:42:45.980Z,2.70
2018-10-19T02:43:45.975Z,3.00
2018-10-19T02:44:45.966Z,3.00
2018-10-19T02:45:45.969Z,2.70
2018-10-19T02:46:45.956Z,2.90
2018-10-19T02:47:45.954Z,2.80
2018-10-19T02:48:45.956Z,3.00
2018-10-19T02:49:45.939Z,2.90
2018-10-19T02:50:45.938Z,3.00
2018-10-19T02:51:45.929Z,3.30
2018-10-19T02:52:45.924Z,3.10
2018-10-19T02:53:45.915Z,3.00
2018-10-19T02:54:45.910Z,2.90
2018-10-19T02:55:45.905Z,3.10
2018-10-19T02:56:45.899Z,3.00
2018-10-19T02:57:45.896Z,3.00
2018-10-19T02:58:45.887Z,3.10
2018-10-19T02:59:45.882Z,3.10
2018-10-19T03:00:45.877Z,3.30
2018-10-19T03:01:45.871Z,2.80
2018-10-19T03:02:45.866Z,2.90
2018-10-19T03:03:45.861Z,2.90
2018-10-19T03:04:45.852Z,3.00
2018-10-19T03:05:45.851Z,3.20
2018-10-19T03:06:45.874Z,3.30
2018-10-19T03:07:45.840Z,3.30
2018-10-19T03:08:45.830Z,3.10
2018-10-19T03:09:45.825Z,3.00
2018-10-19T03:10:45.816Z,3.20
2018-10-19T03:11:45.813Z,3.20
2018-10-19T03:12:45.808Z,3.10
2018-10-19T03:13:45.800Z,3.00
2018-10-19T03:14:45.794Z,3.50
2018-10-19T03:15:45.788Z,3.20
2018-10-19T03:16:45.783Z,3.30
2018-10-19T03:17:45.775Z,3.70
2018-10-19T03:18:45.771Z,3.10
2018-10-19T03:19:45.764Z,3.10
2018-10-19T03:20:45.763Z,2.70
2018-10-19T03:21:45.753Z,3.00
2018-10-19T03:22:45.747Z,3.00
2018-10-19T03:23:45.743Z,3.10
2018-10-19T03:24:45.736Z,3.50
2018-10-19T03:25:45.737Z,3.40
2018-10-19T03:26:45.733Z,3.30
2018-10-19T03:27:45.718Z,3.10
2018-10-19T03:28:45.730Z,3.30
2018-10-19T03:29:45.711Z,3.20
2018-10-19T03:30:45.781Z,3.30
2018-10-19T03:31:45.695Z,3.30
2018-10-19T03:32:45.688Z,3.10
2018-10-19T03:33:45.687Z,3.30
2018-10-19T03:34:45.680Z,3.10
2018-10-19T03:35:45.675Z,3.30
2018-10-19T03:36:45.668Z,3.30
2018-10-19T03:37:45.660Z,3.10
2018-10-19T03:38:45.659Z,3.10
2018-10-19T03:39:45.667Z,3.30
2018-10-19T03:40:45.641Z,3.20
2018-10-19T03:41:45.641Z,3.40
2018-10-19T03:42:45.632Z,3.20
2018-10-19T03:43:45.626Z,3.10
2018-10-19T03:44:45.621Z,3.10
2018-10-19T03:45:45.614Z,2.90
2018-10-19T03:46:45.610Z,3.20
2018-10-19T03:47:45.602Z,3.00
2018-10-19T03:48:45.598Z,3.10
2018-10-19T03:49:45.596Z,3.40
2018-10-19T03:50:45.586Z,3.20
2018-10-19T03:51:45.584Z,3.40
2018-10-19T03:52:45.579Z,3.40
2018-10-19T03:53:45.569Z,3.30
2018-10-19T03:54:45.562Z,3.20
2018-10-19T03:55:45.559Z,3.10
2018-10-19T03:56:45.562Z,3.00
2018-10-19T03:57:45.545Z,3.30
2018-10-19T03:58:45.539Z,3.60
2018-10-19T03:59:45.534Z,3.40
2018-10-19T04:00:45.530Z,3.20
2018-10-19T04:01:45.523Z,3.10
2018-10-19T04:02:45.517Z,3.40
2018-10-19T04:03:45.694Z,3.30
2018-10-19T04:04:45.506Z,3.60
2018-10-19T04:05:45.500Z,3.40
2018-10-19T04:06:45.493Z,3.00
2018-10-19T04:07:45.492Z,3.50
2018-10-19T04:08:45.484Z,3.40
2018-10-19T04:09:45.483Z,3.60
2018-10-19T04:10:45.473Z,3.10
2018-10-19T04:11:45.470Z,3.10
2018-10-19T04:12:45.461Z,3.30
2018-10-19T04:13:45.455Z,3.20
2018-10-19T04:14:45.451Z,3.50
2018-10-19T04:15:45.447Z,3.50
2018-10-19T04:16:45.439Z,3.20
2018-10-19T04:17:45.432Z,3.20
2018-10-19T04:18:45.424Z,3.40
2018-10-19T04:19:45.422Z,3.20
2018-10-19T04:20:45.416Z,3.50
2018-10-19T04:21:45.409Z,3.40
2018-10-19T04:22:45.404Z,3.40
2018-10-19T04:23:45.397Z,3.60
2018-10-19T04:24:45.395Z,3.60
2018-10-19T04:25:45.385Z,3.80
2018-10-19T04:26:45.381Z,3.60
2018-10-19T04:27:45.453Z,3.60
2018-10-19T04:28:45.370Z,3.70
2018-10-19T04:29:45.365Z,3.30
2018-10-19T04:30:45.358Z,3.70
2018-10-19T04:31:45.353Z,3.40
2018-10-19T04:32:45.359Z,3.30
2018-10-19T04:33:45.344Z,3.60
2018-10-19T04:34:45.334Z,3.80
2018-10-19T04:35:45.334Z,3.80
2018-10-19T04:36:45.324Z,3.60
2018-10-19T04:37:45.358Z,3.40
2018-10-19T04:38:45.312Z,3.50
2018-10-19T04:39:45.311Z,3.30
2018-10-19T04:40:45.306Z,3.40
2018-10-19T04:41:45.375Z,3.50
2018-10-19T04:42:45.290Z,3.40
2018-10-19T04:43:45.288Z,3.40
2018-10-19T04:44:45.284Z,3.40
2018-10-19T04:45:45.271Z,3.70
2018-10-19T04:46:45.266Z,3.60
2018-10-19T04:47:45.308Z,3.40
2018-10-19T04:48:45.255Z,4.00
2018-10-19T04:49:45.246Z,3.40
2018-10-19T04:50:45.243Z,3.40
2018-10-19T04:51:45.238Z,3.80
2018-10-19T04:52:45.230Z,3.30
2018-10-19T04:53:45.274Z,3.40
2018-10-19T04:54:45.218Z,3.80
2018-10-19T04:55:45.212Z,3.70
2018-10-19T04:56:45.213Z,3.30
2018-10-19T04:57:45.204Z,3.50
2018-10-19T04:58:45.195Z,3.40
2018-10-19T04:59:45.189Z,4.00
2018-10-19T05:00:45.186Z,3.60
2018-10-19T05:01:45.177Z,3.80
2018-10-19T05:02:45.283Z,3.50
2018-10-19T05:03:45.166Z,3.40
2018-10-19T05:04:45.219Z,3.70
2018-10-19T05:05:45.176Z,3.70
2018-10-19T05:06:45.213Z,4.20
2018-10-19T05:07:45.140Z,3.60
2018-10-19T05:08:45.134Z,3.40
2018-10-19T05:09:45.127Z,3.40
2018-10-19T05:10:45.120Z,3.40
2018-10-19T05:11:45.162Z,3.50
2018-10-19T05:12:45.146Z,3.60
2018-10-19T05:13:45.103Z,3.70
2018-10-19T05:14:45.099Z,3.50
2018-10-19T05:15:45.090Z,3.50
2018-10-19T05:16:45.084Z,3.80
2018-10-19T05:17:45.077Z,3.30
2018-10-19T05:18:45.069Z,3.80
2018-10-19T05:19:45.065Z,3.30
2018-10-19T05:20:45.064Z,3.80
2018-10-19T05:21:45.052Z,3.70
2018-10-19T05:22:45.048Z,3.80
2018-10-19T05:23:45.040Z,3.70
2018-10-19T05:24:45.166Z,3.70
2018-10-19T05:25:45.027Z,3.40
2018-10-19T05:26:45.021Z,3.50
2018-10-19T05:27:45.014Z,3.80
2018-10-19T05:28:45.011Z,3.60
2018-10-19T05:29:44.999Z,3.80
2018-10-19T05:30:44.994Z,3.50
2018-10-19T05:31:44.986Z,3.60
2018-10-19T05:32:45.029Z,3.80
2018-10-19T05:33:44.978Z,4.40
2018-10-19T05:34:44.966Z,3.70
2018-10-19T05:35:44.967Z,3.90
2018-10-19T05:36:44.953Z,3.80
2018-10-19T05:37:44.951Z,3.80
2018-10-19T05:38:44.941Z,4.10
2018-10-19T05:39:44.935Z,3.40
2018-10-19T05:40:44.928Z,4.10
2018-10-19T05:41:44.921Z,3.80
2018-10-19T05:42:44.916Z,4.10
2018-10-19T05:43:44.961Z,4.00
2018-10-19T05:44:44.903Z,4.20
2018-10-19T05:45:44.894Z,4.00
2018-10-19T05:46:44.888Z,3.90
2018-10-19T05:47:44.881Z,4.20
2018-10-19T05:48:44.877Z,3.60
2018-10-19T05:49:44.874Z,3.40
2018-10-19T05:50:44.860Z,3.80
2018-10-19T05:51:44.857Z,3.60
2018-10-19T05:52:44.849Z,3.80
2018-10-19T05:53:44.845Z,4.00
2018-10-19T05:54:44.839Z,3.60
2018-10-19T05:55:44.839Z,3.80
2018-10-19T05:56:44.823Z,3.70
2018-10-19T05:57:44.821Z,3.90
2018-10-19T05:58:44.806Z,3.70
2018-10-19T05:59:44.805Z,4.00
2018-10-19T06:00:44.797Z,3.80
2018-10-19T06:01:44.791Z,4.20
2018-10-19T06:02:44.865Z,4.10
2018-10-19T06:03:44.779Z,3.80
2018-10-19T06:04:44.771Z,4.00
2018-10-19T06:05:44.764Z,4.00
2018-10-19T06:06:45.621Z,4.00
2018-10-19T06:07:44.750Z,3.70
2018-10-19T06:08:44.750Z,3.90
2018-10-19T06:09:44.748Z,3.80
2018-10-19T06:10:44.738Z,3.80
2018-10-19T06:11:44.725Z,3.50
2018-10-19T06:12:44.719Z,3.60
2018-10-19T06:13:44.749Z,3.80
2018-10-19T06:14:44.715Z,3.80
2018-10-19T06:15:44.698Z,3.30
2018-10-19T06:16:44.692Z,3.70
2018-10-19T06:17:44.687Z,3.80
2018-10-19T06:18:44.680Z,3.80
2018-10-19T06:19:44.671Z,3.50
2018-10-19T06:20:44.666Z,3.30
2018-10-19T06:21:44.655Z,3.50
2018-10-19T06:22:44.652Z,4.00
2018-10-19T06:23:44.647Z,3.30
2018-10-19T06:24:44.642Z,3.60
2018-10-19T06:25:44.658Z,3.50
2018-10-19T06:26:44.627Z,3.50
2018-10-19T06:27:44.620Z,3.80
2018-10-19T06:28:44.613Z,3.60
2018-10-19T06:29:44.606Z,3.60
2018-10-19T06:30:44.607Z,3.50
2018-10-19T06:31:44.595Z,3.40
2018-10-19T06:32:44.586Z,3.30
2018-10-19T06:33:44.630Z,3.60
2018-10-19T06:34:44.574Z,3.60
2018-10-19T06:35:44.569Z,3.80
2018-10-19T06:36:44.555Z,3.30
2018-10-19T06:37:44.557Z,3.70
2018-10-19T06:38:44.548Z,3.40
2018-10-19T06:39:44.543Z,3.50
2018-10-19T06:40:44.568Z,3.50
2018-10-19T06:41:44.536Z,3.70
2018-10-19T06:42:44.522Z,3.60
2018-10-19T06:43:44.522Z,3.40
2018-10-19T06:44:44.511Z,3.70
2018-10-19T06:45:45.204Z,3.50
2018-10-19T06:46:44.601Z,3.70
2018-10-19T06:47:44.491Z,3.90
2018-10-19T06:48:44.484Z,3.60
2018-10-19T06:49:44.479Z,3.30
2018-10-19T06:50:44.475Z,3.40
2018-10-19T06:51:44.465Z,3.80
2018-10-19T06:52:44.454Z,3.70
2018-10-19T06:53:44.453Z,3.60
2018-10-19T06:54:44.445Z,3.50
2018-10-19T06:55:44.440Z,3.60
2018-10-19T06:56:44.433Z,3.60
2018-10-19T06:57:44.426Z,3.50
2018-10-19T06:58:44.425Z,3.60
2018-10-19T06:59:44.418Z,3.70
2018-10-19T07:00:44.407Z,3.60
2018-10-19T07:01:44.404Z,3.50
2018-10-19T07:02:44.398Z,3.40
2018-10-19T07:03:44.392Z,3.30
2018-10-19T07:04:45.206Z,3.50
2018-10-19T07:05:44.435Z,3.50
2018-10-19T07:06:44.374Z,3.50
2018-10-19T07:07:44.399Z,3.70
2018-10-19T07:08:44.362Z,3.50
2018-10-19T07:09:44.359Z,3.30
2018-10-19T07:10:44.348Z,3.30
2018-10-19T07:11:44.341Z,3.30
2018-10-19T07:12:44.335Z,3.50
2018-10-19T07:13:44.332Z,3.60
2018-10-19T07:14:44.329Z,3.40
2018-10-19T07:15:44.342Z,3.50
2018-10-19T07:16:44.314Z,3.70
2018-10-19T07:17:44.307Z,3.50
2018-10-19T07:18:44.301Z,3.50
2018-10-19T07:19:44.292Z,3.80
2018-10-19T07:20:44.288Z,3.30
2018-10-19T07:21:44.312Z,3.40
2018-10-19T07:22:44.275Z,3.90
2018-10-19T07:23:44.270Z,3.40
2018-10-19T07:24:44.322Z,3.70
2018-10-19T07:25:44.257Z,3.30
2018-10-19T07:26:44.253Z,3.40
2018-10-19T07:27:44.248Z,3.50
2018-10-19T07:28:44.240Z,3.60
2018-10-19T07:29:44.236Z,3.20
2018-10-19T07:30:44.228Z,3.40
2018-10-19T07:31:44.221Z,3.60
2018-10-19T07:32:44.217Z,3.60
2018-10-19T07:33:44.208Z,3.50
2018-10-19T07:34:44.205Z,4.00
2018-10-19T07:35:44.220Z,3.40
2018-10-19T07:36:44.193Z,3.70
2018-10-19T07:37:44.216Z,3.40
2018-10-19T07:38:44.176Z,3.50
2018-10-19T07:39:44.223Z,3.60
2018-10-19T07:40:44.170Z,3.40
2018-10-19T07:41:44.164Z,3.60
2018-10-19T07:42:44.193Z,3.50
2018-10-19T07:43:44.161Z,3.40
2018-10-19T07:44:44.148Z,3.40
2018-10-19T07:45:44.140Z,3.60
2018-10-19T07:46:44.135Z,3.70
2018-10-19T07:47:44.216Z,3.60
2018-10-19T07:48:44.124Z,3.60
2018-10-19T07:49:44.121Z,3.70
2018-10-19T07:50:44.114Z,3.50
2018-10-19T07:51:44.107Z,3.70
2018-10-19T07:52:44.102Z,3.60
2018-10-19T07:53:44.095Z,3.90
2018-10-19T07:54:44.100Z,3.50
2018-10-19T07:55:44.086Z,3.80
2018-10-19T07:56:44.077Z,3.70
2018-10-19T07:57:44.072Z,3.80
2018-10-19T07:58:44.067Z,3.90
2018-10-19T07:59:44.062Z,3.80
2018-10-19T08:00:44.062Z,3.40
2018-10-19T08:01:44.050Z,3.70
2018-10-19T08:02:44.045Z,3.70
2018-10-19T08:03:44.036Z,3.70
2018-10-19T08:04:44.039Z,3.60
2018-10-19T08:05:44.030Z,4.00
2018-10-19T08:06:44.022Z,3.50
2018-10-19T08:07:44.037Z,3.70
2018-10-19T08:08:44.010Z,3.90
2018-10-19T08:09:44.099Z,3.70
2018-10-19T08:10:44.006Z,4.00
2018-10-19T08:11:43.994Z,3.90
2018-10-19T08:12:43.986Z,3.80
2018-10-19T08:13:44.011Z,4.10
2018-10-19T08:14:44.005Z,3.70
2018-10-19T08:15:43.975Z,4.00
2018-10-19T08:16:43.965Z,4.00
2018-10-19T08:17:43.959Z,3.90
2018-10-19T08:18:43.956Z,4.10
2018-10-19T08:19:43.962Z,3.80
2018-10-19T08:20:43.982Z,4.00
2018-10-19T08:21:43.939Z,3.80
2018-10-19T08:22:43.932Z,3.60
2018-10-19T08:23:43.922Z,4.20
2018-10-19T08:24:44.726Z,3.80
2018-10-19T08:25:43.928Z,3.90
2018-10-19T08:26:43.905Z,4.00
2018-10-19T08:27:43.899Z,3.60
2018-10-19T08:28:43.898Z,3.80
2018-10-19T08:29:43.907Z,4.00
2018-10-19T08:30:43.889Z,3.80
2018-10-19T08:31:43.880Z,3.80
2018-10-19T08:32:43.873Z,3.80
2018-10-19T08:33:43.912Z,3.50
2018-10-19T08:34:43.876Z,4.10
2018-10-19T08:35:43.863Z,3.80
2018-10-19T08:36:43.865Z,3.30
2018-10-19T08:37:43.847Z,3.80
2018-10-19T08:38:43.847Z,3.90
2018-10-19T08:39:43.899Z,3.80
2018-10-19T08:40:43.831Z,3.40
2018-10-19T08:41:44.008Z,3.90
2018-10-19T08:42:43.823Z,4.00
2018-10-19T08:43:43.815Z,3.50
2018-10-19T08:44:43.811Z,3.30
2018-10-19T08:45:43.837Z,3.90
2018-10-19T08:46:43.803Z,3.70
2018-10-19T08:47:43.874Z,3.90
2018-10-19T08:48:43.787Z,4.20
2018-10-19T08:49:43.814Z,3.80
2018-10-19T08:50:43.773Z,3.80
2018-10-19T08:51:43.779Z,4.10
2018-10-19T08:52:43.778Z,4.00
2018-10-19T08:53:43.804Z,4.30
2018-10-19T08:54:43.787Z,4.30
2018-10-19T08:55:43.763Z,3.90
2018-10-19T08:56:43.752Z,4.10
2018-10-19T08:57:43.816Z,4.20
2018-10-19T08:58:43.735Z,4.00
2018-10-19T08:59:43.781Z,4.00
2018-10-19T09:00:43.719Z,4.20
2018-10-19T09:01:43.740Z,3.90
2018-10-19T09:02:43.772Z,3.60
2018-10-19T09:03:43.757Z,4.10
2018-10-19T09:04:43.697Z,3.80
2018-10-19T09:05:43.701Z,3.60
2018-10-19T09:06:43.723Z,3.70
2018-10-19T09:07:43.704Z,3.70
2018-10-19T09:08:43.706Z,4.00
2018-10-19T09:09:43.716Z,3.90
2018-10-19T09:10:43.724Z,3.50
2018-10-19T09:11:43.773Z,3.70
2018-10-19T09:12:43.748Z,4.00
2018-10-19T09:13:43.649Z,3.70
2018-10-19T09:14:43.651Z,3.20
2018-10-19T09:15:43.649Z,3.50
2018-10-19T09:16:43.691Z,3.40
2018-10-19T09:17:43.629Z,3.10
2018-10-19T09:18:43.624Z,3.30
2018-10-19T09:19:43.627Z,3.00
2018-10-19T09:20:43.621Z,3.20
2018-10-19T09:21:43.608Z,3.20
2018-10-19T09:22:43.602Z,3.20
2018-10-19T09:23:43.599Z,3.50
2018-10-19T09:24:43.621Z,3.00
2018-10-19T09:25:43.586Z,3.40
2018-10-19T09:26:43.582Z,2.90
2018-10-19T09:27:43.578Z,3.40
2018-10-19T09:28:43.572Z,3.20
2018-10-19T09:29:43.571Z,3.20
2018-10-19T09:30:43.567Z,3.20
2018-10-19T09:31:43.556Z,3.00
2018-10-19T09:32:43.554Z,3.20
2018-10-19T09:33:43.547Z,3.00
2018-10-19T09:34:43.543Z,3.20
2018-10-19T09:35:43.640Z,3.00
2018-10-19T09:36:43.707Z,3.20
2018-10-19T09:37:43.527Z,3.30
2018-10-19T09:38:43.523Z,3.30
2018-10-19T09:39:43.516Z,3.20
2018-10-19T09:40:43.569Z,2.90
2018-10-19T09:41:43.508Z,3.00
2018-10-19T09:42:43.510Z,3.00
2018-10-19T09:43:44.168Z,3.10
2018-10-19T09:44:43.497Z,2.90
2018-10-19T09:45:43.506Z,2.60
2018-10-19T09:46:44.250Z,2.70
2018-10-19T09:47:43.486Z,2.90
2018-10-19T09:48:43.476Z,2.80
2018-10-19T09:49:43.471Z,2.70
2018-10-19T09:50:43.469Z,2.60
2018-10-19T09:51:43.460Z,2.70
2018-10-19T09:52:43.458Z,2.80
2018-10-19T09:53:43.466Z,2.70
2018-10-19T09:54:43.497Z,2.60
2018-10-19T09:55:43.478Z,2.40
2018-10-19T09:56:43.453Z,2.30
2018-10-19T09:57:43.441Z,2.40
2018-10-19T09:58:43.471Z,2.50
2018-10-19T09:59:43.477Z,2.40
2018-10-19T10:00:43.472Z,2.50
2018-10-19T10:01:43.415Z,2.30
2018-10-19T10:02:43.433Z,2.20
2018-10-19T10:03:43.409Z,2.40
2018-10-19T10:04:43.405Z,2.30
2018-10-19T10:05:43.400Z,2.30
2018-10-19T10:06:43.398Z,2.50
2018-10-19T10:07:43.438Z,2.10
2018-10-19T10:08:43.400Z,2.20
2018-10-19T10:09:43.403Z,2.40
2018-10-19T10:10:43.414Z,2.30
2018-10-19T10:11:43.373Z,2.40
2018-10-19T10:12:43.367Z,2.10
2018-10-19T10:13:43.367Z,2.40
2018-10-19T10:14:43.408Z,2.30
2018-10-19T10:15:43.417Z,2.60
2018-10-19T10:16:43.389Z,2.30
2018-10-19T10:17:43.391Z,2.80
2018-10-19T10:18:43.343Z,2.50
2018-10-19T10:19:43.339Z,2.50
2018-10-19T10:20:43.334Z,1.80
2018-10-19T10:21:43.329Z,2.10
2018-10-19T10:22:43.382Z,2.30
2018-10-19T10:23:43.326Z,1.90
2018-10-19T10:24:43.364Z,2.10
2018-10-19T10:25:43.307Z,2.10
2018-10-19T10:26:43.307Z,2.20
2018-10-19T10:27:43.370Z,2.10
2018-10-19T10:28:43.303Z,2.20
2018-10-19T10:29:43.295Z,2.60
2018-10-19T10:30:43.292Z,2.20
2018-10-19T10:31:43.320Z,2.00
2018-10-19T10:32:43.282Z,2.20
2018-10-19T10:33:43.345Z,2.00
2018-10-19T10:34:43.289Z,2.00
2018-10-19T10:35:43.273Z,2.30
2018-10-19T10:36:43.263Z,1.90
2018-10-19T10:37:43.298Z,2.40
2018-10-19T10:38:43.324Z,2.30
2018-10-19T10:39:43.255Z,2.40
2018-10-19T10:40:43.253Z,2.50
2018-10-19T10:41:43.245Z,2.20
2018-10-19T10:42:43.241Z,2.10
2018-10-19T10:43:43.234Z,2.30
2018-10-19T10:44:43.233Z,2.10
2018-10-19T10:45:43.233Z,2.00
2018-10-19T10:46:43.230Z,2.20
2018-10-19T10:47:43.220Z,2.10
2018-10-19T10:48:43.216Z,2.60
2018-10-19T10:49:43.212Z,1.90
2018-10-19T10:50:43.212Z,2.10
2018-10-19T10:51:43.200Z,2.10
2018-10-19T10:52:43.206Z,1.90
2018-10-19T10:53:43.195Z,2.00
2018-10-19T10:54:43.188Z,2.00
2018-10-19T10:55:43.228Z,1.70
2018-10-19T10:56:43.185Z,2.00
2018-10-19T10:57:43.200Z,2.10
2018-10-19T10:58:43.174Z,2.20
2018-10-19T10:59:43.191Z,2.40
2018-10-19T11:00:43.182Z,2.10
2018-10-19T11:01:43.187Z,2.20
2018-10-19T11:02:43.161Z,2.20
2018-10-19T11:03:43.155Z,2.30
2018-10-19T11:04:43.151Z,2.20
2018-10-19T11:05:43.151Z,2.20
2018-10-19T11:06:43.143Z,2.00
2018-10-19T11:07:43.203Z,1.90
2018-10-19T11:08:43.133Z,2.20
2018-10-19T11:09:43.125Z,1.90
2018-10-19T11:10:43.125Z,1.80
2018-10-19T11:11:43.121Z,2.00
2018-10-19T11:12:43.146Z,1.90
2018-10-19T11:13:43.118Z,1.90
2018-10-19T11:14:43.114Z,1.80
2018-10-19T11:15:43.111Z,1.90
2018-10-19T11:16:43.101Z,1.90
2018-10-19T11:17:43.691Z,1.90
2018-10-19T11:18:43.124Z,1.80
2018-10-19T11:19:43.086Z,1.90
2018-10-19T11:20:43.093Z,1.70
2018-10-19T11:21:43.081Z,1.40
2018-10-19T11:22:43.079Z,1.80
2018-10-19T11:23:43.076Z,1.80
2018-10-19T11:24:43.112Z,1.70
2018-10-19T11:25:43.070Z,1.80
2018-10-19T11:26:43.100Z,1.80
2018-10-19T11:27:43.060Z,1.60
2018-10-19T11:28:43.099Z,2.00
2018-10-19T11:29:43.053Z,1.70
2018-10-19T11:30:43.153Z,1.60
2018-10-19T11:31:43.083Z,1.90
2018-10-19T11:32:43.043Z,1.90
2018-10-19T11:33:43.090Z,1.80
2018-10-19T11:34:43.054Z,1.70
2018-10-19T11:35:43.097Z,2.10
2018-10-19T11:36:43.031Z,1.90
2018-10-19T11:37:43.131Z,1.80
2018-10-19T11:38:43.028Z,1.70
2018-10-19T11:39:43.014Z,1.80
2018-10-19T11:40:43.077Z,1.80
2018-10-19T11:41:43.044Z,2.10
2018-10-19T11:42:43.000Z,2.00
2018-10-19T11:43:42.993Z,1.80
2018-10-19T11:44:42.994Z,1.70
2018-10-19T11:45:42.991Z,1.50
2018-10-19T11:46:42.987Z,1.50
2018-10-19T11:47:42.982Z,1.80
2018-10-19T11:48:43.006Z,1.90
2018-10-19T11:49:43.010Z,1.50
2018-10-19T11:50:42.972Z,1.70
2018-10-19T11:51:42.963Z,1.60
2018-10-19T11:52:43.024Z,1.80
2018-10-19T11:53:42.954Z,1.80
2018-10-19T11:54:43.009Z,1.90
2018-10-19T11:55:42.968Z,1.80
2018-10-19T11:56:42.987Z,2.00
2018-10-19T11:57:42.982Z,1.80
2018-10-19T11:58:42.987Z,2.10
2018-10-19T11:59:42.962Z,2.00
2018-10-19T12:00:42.970Z,2.10
2018-10-19T12:01:42.957Z,2.10
2018-10-19T12:02:42.926Z,2.10
2018-10-19T12:03:42.962Z,1.90
2018-10-19T12:04:42.920Z,2.10
2018-10-19T12:05:42.910Z,2.40
2018-10-19T12:06:42.984Z,2.60
2018-10-19T12:07:42.908Z,2.40
2018-10-19T12:08:42.905Z,2.00
2018-10-19T12:09:42.915Z,2.10
2018-10-19T12:10:42.991Z,2.00
2018-10-19T12:11:42.894Z,1.90
2018-10-19T12:12:42.891Z,2.10
2018-10-19T12:13:42.911Z,2.10
2018-10-19T12:14:42.908Z,1.70
2018-10-19T12:15:42.935Z,1.80
2018-10-19T12:16:42.993Z,2.00
2018-10-19T12:17:42.892Z,2.10
2018-10-19T12:18:42.869Z,1.90
2018-10-19T12:19:43.708Z,2.00
2018-10-19T12:20:42.912Z,1.90
2018-10-19T12:21:42.885Z,2.10
2018-10-19T12:22:42.857Z,2.00
2018-10-19T12:23:42.887Z,2.00
2018-10-19T12:24:42.845Z,2.00
2018-10-19T12:25:42.838Z,2.10
2018-10-19T12:26:42.842Z,1.70
2018-10-19T12:27:42.834Z,2.00
2018-10-19T12:28:42.835Z,1.60
2018-10-19T12:29:42.838Z,1.90
2018-10-19T12:30:42.824Z,1.60
2018-10-19T12:31:42.819Z,1.80
2018-10-19T12:32:42.828Z,2.10
2018-10-19T12:33:42.824Z,1.80
2018-10-19T12:34:42.821Z,1.80
2018-10-19T12:35:42.808Z,1.80
2018-10-19T12:36:42.808Z,1.70
2018-10-19T12:37:42.816Z,1.90
2018-10-19T12:38:42.852Z,1.80
2018-10-19T12:39:42.814Z,1.70
2018-10-19T12:40:42.813Z,1.60
2018-10-19T12:41:42.828Z,1.60
2018-10-19T12:42:42.836Z,1.70
2018-10-19T12:43:42.792Z,1.70
2018-10-19T12:44:42.790Z,1.80
2018-10-19T12:45:42.772Z,1.70
2018-10-19T12:46:42.768Z,2.00
2018-10-19T12:47:42.763Z,1.60
2018-10-19T12:48:42.760Z,1.70
2018-10-19T12:49:42.758Z,1.60
2018-10-19T12:50:42.797Z,1.50
2018-10-19T12:51:42.743Z,1.80
2018-10-19T12:52:42.747Z,1.70
2018-10-19T12:53:42.786Z,1.70
2018-10-19T12:54:42.735Z,1.60
2018-10-19T12:55:42.740Z,1.50
2018-10-19T12:56:42.733Z,1.80
2018-10-19T12:57:42.821Z,1.80
2018-10-19T12:58:42.727Z,1.70
2018-10-19T12:59:42.716Z,1.50
2018-10-19T13:00:42.716Z,1.90
2018-10-19T13:01:42.714Z,1.70
2018-10-19T13:02:42.711Z,1.80
2018-10-19T13:03:42.715Z,1.90
2018-10-19T13:04:42.722Z,1.80
2018-10-19T13:05:42.704Z,1.80
2018-10-19T13:06:42.701Z,1.80
2018-10-19T13:07:42.696Z,1.70
2018-10-19T13:08:42.691Z,1.70
2018-10-19T13:09:42.684Z,1.70
2018-10-19T13:10:42.684Z,1.50
2018-10-19T13:11:42.681Z,1.70
2018-10-19T13:12:42.673Z,1.80
2018-10-19T13:13:42.671Z,1.70
2018-10-19T13:14:42.673Z,1.60
2018-10-19T13:15:42.667Z,1.60
2018-10-19T13:16:42.663Z,1.90
2018-10-19T13:17:42.658Z,1.80
2018-10-19T13:18:42.659Z,1.60